createdAt,value
2018-07-21T00:00:19.157Z,22.15
2018-07-21T00:01:19.117Z,22.22
2018-07-21T00:02:19.121Z,22.26
2018-07-21T00:03:19.038Z,22.21
2018-07-21T00:04:19.000Z,22.28
2018-07-21T00:05:18.959Z,22.12
2018-07-21T00:06:18.920Z,22.26
2018-07-21T00:07:18.881Z,22.23
2018-07-21T00:08:18.843Z,22.19
2018-07-21T00:09:18.802Z,22.23
2018-07-21T00:10:18.761Z,22.23
2018-07-21T00:11:18.720Z,22.19
2018-07-21T00:12:18.679Z,22.22
2018-07-21T00:13:18.641Z,22.19
2018-07-21T00:14:18.607Z,22.21
2018-07-21T00:15:18.561Z,22.19
2018-07-21T00:16:18.528Z,22.21
2018-07-21T00:17:18.481Z,22.22
2018-07-21T00:18:18.443Z,22.23
2018-07-21T00:19:18.401Z,22.21
2018-07-21T00:20:18.362Z,22.19
2018-07-21T00:21:18.333Z,22.21
2018-07-21T00:22:18.284Z,22.21
2018-07-21T00:23:18.251Z,22.25
2018-07-21T00:24:18.203Z,22.14
2018-07-21T00:25:18.163Z,22.15
2018-07-21T00:26:18.133Z,22.12
2018-07-21T00:27:18.084Z,22.14
2018-07-21T00:28:18.045Z,22.08
2018-07-21T00:29:18.004Z,22.14
2018-07-21T00:30:17.966Z,22.03
2018-07-21T00:31:17.927Z,22.08
2018-07-21T00:32:17.886Z,22.06
2018-07-21T00:33:17.846Z,22.10
2018-07-21T00:34:17.805Z,22.06
2018-07-21T00:35:17.763Z,22.07
2018-07-21T00:36:17.726Z,22.12
2018-07-21T00:37:17.688Z,22.00
2018-07-21T00:38:17.648Z,21.96
2018-07-21T00:39:17.606Z,22.01
2018-07-21T00:40:17.566Z,22.07
2018-07-21T00:41:17.527Z,22.00
2018-07-21T00:42:17.487Z,21.99
2018-07-21T00:43:17.447Z,22.04
2018-07-21T00:44:17.408Z,21.96
2018-07-21T00:45:17.368Z,21.94
2018-07-21T00:46:17.334Z,21.89
2018-07-21T00:47:17.289Z,21.91
2018-07-21T00:48:17.249Z,21.96
2018-07-21T00:49:17.213Z,21.97
2018-07-21T00:50:17.169Z,21.96
2018-07-21T00:51:17.128Z,21.94
2018-07-21T00:52:17.088Z,21.92
2018-07-21T00:53:17.054Z,21.94
2018-07-21T00:54:17.009Z,21.83
2018-07-21T00:55:16.969Z,21.94
2018-07-21T00:56:16.931Z,21.96
2018-07-21T00:57:16.894Z,21.85
2018-07-21T00:58:16.851Z,21.85
2018-07-21T00:59:16.809Z,21.91
2018-07-21T01:00:16.775Z,21.92
2018-07-21T01:01:16.729Z,21.92
2018-07-21T01:02:16.689Z,21.83
2018-07-21T01:03:16.650Z,21.85
2018-07-21T01:04:16.615Z,21.84
2018-07-21T01:05:16.569Z,21.72
2018-07-21T01:06:16.531Z,21.77
2018-07-21T01:07:16.489Z,21.66
2018-07-21T01:08:16.451Z,21.70
2018-07-21T01:09:16.414Z,21.69
2018-07-21T01:10:16.372Z,21.65
2018-07-21T01:11:16.334Z,21.72
2018-07-21T01:12:16.290Z,21.63
2018-07-21T01:13:16.250Z,21.60
2018-07-21T01:14:16.212Z,21.53
2018-07-21T01:15:16.169Z,21.53
2018-07-21T01:16:16.130Z,21.53
2018-07-21T01:17:16.091Z,21.54
2018-07-21T01:18:16.051Z,21.54
2018-07-21T01:19:16.012Z,21.43
2018-07-21T01:20:15.972Z,21.45
2018-07-21T01:21:15.930Z,21.40
2018-07-21T01:22:15.891Z,21.35
2018-07-21T01:23:15.851Z,21.37
2018-07-21T01:24:15.810Z,21.44
2018-07-21T01:25:15.770Z,21.35
2018-07-21T01:26:15.731Z,21.30
2018-07-21T01:27:15.689Z,21.37
2018-07-21T01:28:15.652Z,21.26
2018-07-21T01:29:15.612Z,21.30
2018-07-21T01:30:15.570Z,21.30
2018-07-21T01:31:15.529Z,21.32
2018-07-21T01:32:15.489Z,21.32
2018-07-21T01:33:15.449Z,21.28
2018-07-21T01:34:15.409Z,21.25
2018-07-21T01:35:15.369Z,21.28
2018-07-21T01:36:15.327Z,21.25
2018-07-21T01:37:15.288Z,21.19
2018-07-21T01:38:15.248Z,21.17
2018-07-21T01:39:15.209Z,21.15
2018-07-21T01:40:15.326Z,21.14
2018-07-21T01:41:15.749Z,21.14
2018-07-21T01:42:15.665Z,21.15
2018-07-21T01:43:15.048Z,21.14
2018-07-21T01:44:15.008Z,21.15
2018-07-21T01:45:14.969Z,21.15
2018-07-21T01:46:14.929Z,21.14
2018-07-21T01:47:14.885Z,21.07
2018-07-21T01:48:14.848Z,21.14
2018-07-21T01:49:14.807Z,21.01
2018-07-21T01:50:14.766Z,21.11
2018-07-21T01:51:14.725Z,21.07
2018-07-21T01:52:14.684Z,21.07
2018-07-21T01:53:14.644Z,21.04
2018-07-21T01:54:14.607Z,21.05
2018-07-21T01:55:14.565Z,21.05
2018-07-21T01:56:14.523Z,21.03
2018-07-21T01:57:14.486Z,20.95
2018-07-21T01:58:14.445Z,21.07
2018-07-21T01:59:14.405Z,21.05
2018-07-21T02:00:14.361Z,20.95
2018-07-21T02:01:14.324Z,20.98
2018-07-21T02:02:14.280Z,21.05
2018-07-21T02:03:14.241Z,21.01
2018-07-21T02:04:14.200Z,21.03
2018-07-21T02:05:14.160Z,20.93
2018-07-21T02:06:14.120Z,20.92
2018-07-21T02:07:14.082Z,21.00
2018-07-21T02:08:14.043Z,20.86
2018-07-21T02:09:14.000Z,20.98
2018-07-21T02:10:13.963Z,20.93
2018-07-21T02:11:13.920Z,20.89
2018-07-21T02:12:13.879Z,21.03
2018-07-21T02:13:13.840Z,20.93
2018-07-21T02:14:13.797Z,20.98
2018-07-21T02:15:13.756Z,20.93
2018-07-21T02:16:13.717Z,21.04
2018-07-21T02:17:13.677Z,20.98
2018-07-21T02:18:13.638Z,20.95
2018-07-21T02:19:13.641Z,20.96
2018-07-21T02:20:13.554Z,21.01
2018-07-21T02:21:13.547Z,20.95
2018-07-21T02:22:13.479Z,20.95
2018-07-21T02:23:13.504Z,21.04
2018-07-21T02:24:13.416Z,21.03
2018-07-21T02:25:13.354Z,20.95
2018-07-21T02:26:13.314Z,20.98
2018-07-21T02:27:13.273Z,20.98
2018-07-21T02:28:13.234Z,20.98
2018-07-21T02:29:13.191Z,21.00
2018-07-21T02:30:13.155Z,21.01
2018-07-21T02:31:13.109Z,20.88
2018-07-21T02:32:13.077Z,20.98
2018-07-21T02:33:13.034Z,21.00
2018-07-21T02:34:12.995Z,20.95
2018-07-21T02:35:12.949Z,20.96
2018-07-21T02:36:12.911Z,20.95
2018-07-21T02:37:12.870Z,21.00
2018-07-21T02:38:12.838Z,20.98
2018-07-21T02:39:12.788Z,20.85
2018-07-21T02:40:12.747Z,20.93
2018-07-21T02:41:12.707Z,20.89
2018-07-21T02:42:12.670Z,20.85
2018-07-21T02:43:12.631Z,20.83
2018-07-21T02:44:12.588Z,20.89
2018-07-21T02:45:12.547Z,20.82
2018-07-21T02:46:12.511Z,20.90
2018-07-21T02:47:12.464Z,20.88
2018-07-21T02:48:12.426Z,20.88
2018-07-21T02:49:12.386Z,20.83
2018-07-21T02:50:12.346Z,20.85
2018-07-21T02:51:12.303Z,20.83
2018-07-21T02:52:12.266Z,20.89
2018-07-21T02:53:12.223Z,20.82
2018-07-21T02:54:12.183Z,20.90
2018-07-21T02:55:12.142Z,20.86
2018-07-21T02:56:12.104Z,20.88
2018-07-21T02:57:12.061Z,20.83
2018-07-21T02:58:12.024Z,20.90
2018-07-21T02:59:11.979Z,20.83
2018-07-21T03:00:11.942Z,20.86
2018-07-21T03:01:11.899Z,20.80
2018-07-21T03:02:11.859Z,20.93
2018-07-21T03:03:11.821Z,20.90
2018-07-21T03:04:11.786Z,20.89
2018-07-21T03:05:11.744Z,20.88
2018-07-21T03:06:11.699Z,21.00
2018-07-21T03:07:11.656Z,20.96
2018-07-21T03:08:11.624Z,21.00
2018-07-21T03:09:11.578Z,20.96
2018-07-21T03:10:11.538Z,20.93
2018-07-21T03:11:11.503Z,20.98
2018-07-21T03:12:11.460Z,20.93
2018-07-21T03:13:11.415Z,21.00
2018-07-21T03:14:11.375Z,21.00
2018-07-21T03:15:11.334Z,21.03
2018-07-21T03:16:11.295Z,20.89
2018-07-21T03:17:11.253Z,20.96
2018-07-21T03:18:11.214Z,20.96
2018-07-21T03:19:11.173Z,20.92
2018-07-21T03:20:11.135Z,20.85
2018-07-21T03:21:11.095Z,20.88
2018-07-21T03:22:11.051Z,20.86
2018-07-21T03:23:11.072Z,20.89
2018-07-21T03:24:10.972Z,20.86
2018-07-21T03:25:10.930Z,20.73
2018-07-21T03:26:10.890Z,20.86
2018-07-21T03:27:10.853Z,20.75
2018-07-21T03:28:10.815Z,20.74
2018-07-21T03:29:10.768Z,20.73
2018-07-21T03:30:10.730Z,20.70
2018-07-21T03:31:10.687Z,20.70
2018-07-21T03:32:10.649Z,20.67
2018-07-21T03:33:10.606Z,20.59
2018-07-21T03:34:10.567Z,20.52
2018-07-21T03:35:10.531Z,20.58
2018-07-21T03:36:10.490Z,20.55
2018-07-21T03:37:10.443Z,20.63
2018-07-21T03:38:10.406Z,20.53
2018-07-21T03:39:10.366Z,20.50
2018-07-21T03:40:10.326Z,20.46
2018-07-21T03:41:10.285Z,20.42
2018-07-21T03:42:10.241Z,20.40
2018-07-21T03:43:10.202Z,20.44
2018-07-21T03:44:10.161Z,20.36
2018-07-21T03:45:10.126Z,20.36
2018-07-21T03:46:10.082Z,20.32
2018-07-21T03:47:10.057Z,20.29
2018-07-21T03:48:10.010Z,20.24
2018-07-21T03:49:09.971Z,20.22
2018-07-21T03:50:09.934Z,20.34
2018-07-21T03:51:09.875Z,20.32
2018-07-21T03:52:09.838Z,20.19
2018-07-21T03:53:09.800Z,20.21
2018-07-21T03:54:09.754Z,20.27
2018-07-21T03:55:09.729Z,20.18
2018-07-21T03:56:09.672Z,20.12
2018-07-21T03:57:09.631Z,20.03
2018-07-21T03:58:09.591Z,20.08
2018-07-21T03:59:09.550Z,20.07
2018-07-21T04:00:09.512Z,20.03
2018-07-21T04:01:09.472Z,19.99
2018-07-21T04:02:09.429Z,20.02
2018-07-21T04:03:09.394Z,19.92
2018-07-21T04:04:09.346Z,19.93
2018-07-21T04:05:09.306Z,19.93
2018-07-21T04:06:09.265Z,19.87
2018-07-21T04:07:09.232Z,19.90
2018-07-21T04:08:09.183Z,19.85
2018-07-21T04:09:09.147Z,19.89
2018-07-21T04:10:09.103Z,19.75
2018-07-21T04:11:09.061Z,19.79
2018-07-21T04:12:09.022Z,19.67
2018-07-21T04:13:08.979Z,19.77
2018-07-21T04:14:08.938Z,19.59
2018-07-21T04:15:08.899Z,19.71
2018-07-21T04:16:08.856Z,19.66
2018-07-21T04:17:08.816Z,19.64
2018-07-21T04:18:08.776Z,19.59
2018-07-21T04:19:08.733Z,19.55
2018-07-21T04:20:08.694Z,19.57
2018-07-21T04:21:08.651Z,19.57
2018-07-21T04:22:08.614Z,19.55
2018-07-21T04:23:08.570Z,19.52
2018-07-21T04:24:08.547Z,19.52
2018-07-21T04:25:08.487Z,19.42
2018-07-21T04:26:08.449Z,19.47
2018-07-21T04:27:08.406Z,19.44
2018-07-21T04:28:08.364Z,19.47
2018-07-21T04:29:08.326Z,19.42
2018-07-21T04:30:08.284Z,19.41
2018-07-21T04:31:08.243Z,19.45
2018-07-21T04:32:08.201Z,19.45
2018-07-21T04:33:08.160Z,19.39
2018-07-21T04:34:08.124Z,19.39
2018-07-21T04:35:08.085Z,19.30
2018-07-21T04:36:08.038Z,19.44
2018-07-21T04:37:07.997Z,19.39
2018-07-21T04:38:07.955Z,19.45
2018-07-21T04:39:07.912Z,19.38
2018-07-21T04:40:07.875Z,19.44
2018-07-21T04:41:07.833Z,19.45
2018-07-21T04:42:07.790Z,19.35
2018-07-21T04:43:07.750Z,19.39
2018-07-21T04:44:07.708Z,19.38
2018-07-21T04:45:07.668Z,19.47
2018-07-21T04:46:07.628Z,19.44
2018-07-21T04:47:07.585Z,19.41
2018-07-21T04:48:07.546Z,19.41
2018-07-21T04:49:07.507Z,19.42
2018-07-21T04:50:07.465Z,19.42
2018-07-21T04:51:07.423Z,19.44
2018-07-21T04:52:07.380Z,19.45
2018-07-21T04:53:07.342Z,19.41
2018-07-21T04:54:07.303Z,19.41
2018-07-21T04:55:07.254Z,19.49
2018-07-21T04:56:07.214Z,19.52
2018-07-21T04:57:07.173Z,19.45
2018-07-21T04:58:07.134Z,19.53
2018-07-21T04:59:07.093Z,19.60
2018-07-21T05:00:07.051Z,19.57
2018-07-21T05:01:07.033Z,19.53
2018-07-21T05:02:06.968Z,19.71
2018-07-21T05:03:06.929Z,19.64
2018-07-21T05:04:06.888Z,19.72
2018-07-21T05:05:06.848Z,19.77
2018-07-21T05:06:06.809Z,19.82
2018-07-21T05:07:06.766Z,19.84
2018-07-21T05:08:06.723Z,19.84
2018-07-21T05:09:06.685Z,19.94
2018-07-21T05:10:06.641Z,20.02
2018-07-21T05:11:06.599Z,19.97
2018-07-21T05:12:06.558Z,19.99
2018-07-21T05:13:06.517Z,20.03
2018-07-21T05:14:06.477Z,20.03
2018-07-21T05:15:06.437Z,20.18
2018-07-21T05:16:06.404Z,20.22
2018-07-21T05:17:06.355Z,20.26
2018-07-21T05:18:06.321Z,20.32
2018-07-21T05:19:06.292Z,20.30
2018-07-21T05:20:06.268Z,20.36
2018-07-21T05:21:06.196Z,20.42
2018-07-21T05:22:06.157Z,20.48
2018-07-21T05:23:06.111Z,20.52
2018-07-21T05:24:06.078Z,20.60
2018-07-21T05:25:06.027Z,20.55
2018-07-21T05:26:05.989Z,20.70
2018-07-21T05:27:05.946Z,20.70
2018-07-21T05:28:05.906Z,20.80
2018-07-21T05:29:05.869Z,20.73
2018-07-21T05:30:05.831Z,20.83
2018-07-21T05:31:05.786Z,20.89
2018-07-21T05:32:05.744Z,20.95
2018-07-21T05:33:05.703Z,21.05
2018-07-21T05:34:05.709Z,21.04
2018-07-21T05:35:05.621Z,21.13
2018-07-21T05:36:05.581Z,21.15
2018-07-21T05:37:05.543Z,21.23
2018-07-21T05:38:05.503Z,21.26
2018-07-21T05:39:05.476Z,21.26
2018-07-21T05:40:05.425Z,21.35
2018-07-21T05:41:05.381Z,21.33
2018-07-21T05:42:05.341Z,21.29
2018-07-21T05:43:05.301Z,21.33
2018-07-21T05:44:05.261Z,21.43
2018-07-21T05:45:05.232Z,21.51
2018-07-21T05:46:05.179Z,21.38
2018-07-21T05:47:05.141Z,21.54
2018-07-21T05:48:05.103Z,21.66
2018-07-21T05:49:05.060Z,21.66
2018-07-21T05:50:05.020Z,21.66
2018-07-21T05:51:04.978Z,21.60
2018-07-21T05:52:04.940Z,21.66
2018-07-21T05:53:04.923Z,21.69
2018-07-21T05:54:04.863Z,21.75
2018-07-21T05:55:04.832Z,21.81
2018-07-21T05:56:04.778Z,21.77
2018-07-21T05:57:04.741Z,21.77
2018-07-21T05:58:04.700Z,21.92
2018-07-21T05:59:04.657Z,21.97
2018-07-21T06:00:04.621Z,21.99
2018-07-21T06:01:04.580Z,21.96
2018-07-21T06:02:04.541Z,22.07
2018-07-21T06:03:04.564Z,22.00
2018-07-21T06:04:04.459Z,22.14
2018-07-21T06:05:04.423Z,22.04
2018-07-21T06:06:04.385Z,22.10
2018-07-21T06:07:04.340Z,22.15
2018-07-21T06:08:04.299Z,22.21
2018-07-21T06:09:04.259Z,22.28
2018-07-21T06:10:04.219Z,22.22
2018-07-21T06:11:04.189Z,22.30
2018-07-21T06:12:04.141Z,22.34
2018-07-21T06:13:04.100Z,22.43
2018-07-21T06:14:04.061Z,22.44
2018-07-21T06:15:04.026Z,22.38
2018-07-21T06:16:03.983Z,22.52
2018-07-21T06:17:03.966Z,22.51
2018-07-21T06:18:03.906Z,22.52
2018-07-21T06:19:03.861Z,22.59
2018-07-21T06:20:03.822Z,22.56
2018-07-21T06:21:03.784Z,22.63
2018-07-21T06:22:03.742Z,22.65
2018-07-21T06:23:03.703Z,22.67
2018-07-21T06:24:03.664Z,22.61
2018-07-21T06:25:03.653Z,22.80
2018-07-21T06:26:03.585Z,22.83
2018-07-21T06:27:03.550Z,22.86
2018-07-21T06:28:03.523Z,22.89
2018-07-21T06:29:03.468Z,22.91
2018-07-21T06:30:03.429Z,22.93
2018-07-21T06:31:03.388Z,22.98
2018-07-21T06:32:03.349Z,23.08
2018-07-21T06:33:03.313Z,23.07
2018-07-21T06:34:03.271Z,23.06
2018-07-21T06:35:03.230Z,23.04
2018-07-21T06:36:03.191Z,23.13
2018-07-21T06:37:03.151Z,23.08
2018-07-21T06:38:03.114Z,23.11
2018-07-21T06:39:03.071Z,23.13
2018-07-21T06:40:03.039Z,23.14
2018-07-21T06:41:02.995Z,23.16
2018-07-21T06:42:02.955Z,23.28
2018-07-21T06:43:02.927Z,23.26
2018-07-21T06:44:02.876Z,23.28
2018-07-21T06:45:02.837Z,23.36
2018-07-21T06:46:02.799Z,23.37
2018-07-21T06:47:02.757Z,23.33
2018-07-21T06:48:02.719Z,23.40
2018-07-21T06:49:02.679Z,23.42
2018-07-21T06:50:02.643Z,23.48
2018-07-21T06:51:02.601Z,23.51
2018-07-21T06:52:02.562Z,23.55
2018-07-21T06:53:02.526Z,23.62
2018-07-21T06:54:02.487Z,23.63
2018-07-21T06:55:02.444Z,23.63
2018-07-21T06:56:02.407Z,23.73
2018-07-21T06:57:02.373Z,23.74
2018-07-21T06:58:02.327Z,23.74
2018-07-21T06:59:02.339Z,23.76
2018-07-21T07:00:02.248Z,23.86
2018-07-21T07:01:02.256Z,23.84
2018-07-21T07:02:02.173Z,23.84
2018-07-21T07:03:02.132Z,23.85
2018-07-21T07:04:02.093Z,23.85
2018-07-21T07:05:02.054Z,23.99
2018-07-21T07:06:02.017Z,23.96
2018-07-21T07:07:01.978Z,23.96
2018-07-21T07:08:01.938Z,23.92
2018-07-21T07:09:01.900Z,23.99
2018-07-21T07:10:01.866Z,24.04
2018-07-21T07:11:01.818Z,24.06
2018-07-21T07:12:01.784Z,24.14
2018-07-21T07:13:01.746Z,24.13
2018-07-21T07:14:01.704Z,24.10
2018-07-21T07:15:01.667Z,24.13
2018-07-21T07:16:01.627Z,24.06
2018-07-21T07:17:01.589Z,24.19
2018-07-21T07:18:01.555Z,24.16
2018-07-21T07:19:01.508Z,24.18
2018-07-21T07:20:01.473Z,24.22
2018-07-21T07:21:01.436Z,24.26
2018-07-21T07:22:01.395Z,24.25
2018-07-21T07:23:01.358Z,24.29
2018-07-21T07:24:01.317Z,24.24
2018-07-21T07:25:01.279Z,24.31
2018-07-21T07:26:01.237Z,24.26
2018-07-21T07:27:01.200Z,24.28
2018-07-21T07:28:01.159Z,24.37
2018-07-21T07:29:01.124Z,24.34
2018-07-21T07:30:01.085Z,24.32
2018-07-21T07:31:01.042Z,24.43
2018-07-21T07:32:01.009Z,24.37
2018-07-21T07:33:00.966Z,24.50
2018-07-21T07:34:00.944Z,24.46
2018-07-21T07:35:00.891Z,24.50
2018-07-21T07:36:00.851Z,24.62
2018-07-21T07:37:00.817Z,24.59
2018-07-21T07:38:00.784Z,24.69
2018-07-21T07:39:00.737Z,24.69
2018-07-21T07:40:00.698Z,24.69
2018-07-21T07:41:00.669Z,24.77
2018-07-21T07:42:00.630Z,24.82
2018-07-21T07:43:00.578Z,24.85
2018-07-21T07:44:00.540Z,24.93
2018-07-21T07:45:00.503Z,24.84
2018-07-21T07:46:00.465Z,24.99
2018-07-21T07:47:00.425Z,24.99
2018-07-21T07:48:00.387Z,25.00
2018-07-21T07:49:00.351Z,24.96
2018-07-21T07:50:00.310Z,24.99
2018-07-21T07:51:00.278Z,25.01
2018-07-21T07:52:00.234Z,25.11
2018-07-21T07:53:00.194Z,25.09
2018-07-21T07:54:00.178Z,25.25
2018-07-21T07:55:00.140Z,25.22
2018-07-21T07:56:00.079Z,25.30
2018-07-21T07:57:00.041Z,25.40
2018-07-21T07:58:00.002Z,25.43
2018-07-21T07:58:59.963Z,25.41
2018-07-21T07:59:59.925Z,25.54
2018-07-21T08:00:59.888Z,25.58
2018-07-21T08:01:59.851Z,25.59
2018-07-21T08:02:59.812Z,25.43
2018-07-21T08:03:59.774Z,25.54
2018-07-21T08:04:59.735Z,25.56
2018-07-21T08:05:59.698Z,25.66
2018-07-21T08:06:59.660Z,25.67
2018-07-21T08:07:59.624Z,25.68
2018-07-21T08:08:59.582Z,25.71
2018-07-21T08:09:59.548Z,25.71
2018-07-21T08:10:59.506Z,25.76
2018-07-21T08:11:59.467Z,25.74
2018-07-21T08:12:59.435Z,25.81
2018-07-21T08:13:59.391Z,25.88
2018-07-21T08:14:59.353Z,25.83
2018-07-21T08:15:59.315Z,25.89
2018-07-21T08:16:59.278Z,26.07
2018-07-21T08:17:59.242Z,26.07
2018-07-21T08:18:59.206Z,26.13
2018-07-21T08:19:59.163Z,26.08
2018-07-21T08:20:59.127Z,26.16
2018-07-21T08:21:59.088Z,26.13
2018-07-21T08:22:59.051Z,26.22
2018-07-21T08:23:59.012Z,26.26
2018-07-21T08:24:58.976Z,26.24
2018-07-21T08:25:58.937Z,26.30
2018-07-21T08:26:58.898Z,26.29
2018-07-21T08:27:58.862Z,26.36
2018-07-21T08:28:58.828Z,26.36
2018-07-21T08:29:58.788Z,26.46
2018-07-21T08:30:58.747Z,26.51
2018-07-21T08:31:58.711Z,26.53
2018-07-21T08:32:58.672Z,26.60
2018-07-21T08:33:58.640Z,26.56
2018-07-21T08:34:58.595Z,26.63
2018-07-21T08:35:58.561Z,26.71
2018-07-21T08:36:58.523Z,26.70
2018-07-21T08:37:58.484Z,26.68
2018-07-21T08:38:58.446Z,26.76
2018-07-21T08:39:58.411Z,26.79
2018-07-21T08:40:58.372Z,26.85
2018-07-21T08:41:58.335Z,26.78
2018-07-21T08:42:58.299Z,26.81
2018-07-21T08:43:58.265Z,26.79
2018-07-21T08:44:58.222Z,26.88
2018-07-21T08:45:58.196Z,26.86
2018-07-21T08:46:58.149Z,26.93
2018-07-21T08:47:58.112Z,26.97
2018-07-21T08:48:58.075Z,27.04
2018-07-21T08:49:58.037Z,27.04
2018-07-21T08:50:58.002Z,27.20
2018-07-21T08:51:57.965Z,27.20
2018-07-21T08:52:57.925Z,27.19
2018-07-21T08:53:57.886Z,27.16
2018-07-21T08:54:57.848Z,27.28
2018-07-21T08:55:57.864Z,27.35
2018-07-21T08:56:57.774Z,27.30
2018-07-21T08:57:57.735Z,27.40
2018-07-21T08:58:57.703Z,27.45
2018-07-21T08:59:57.661Z,27.44
2018-07-21T09:00:57.623Z,27.55
2018-07-21T09:01:57.607Z,27.57
2018-07-21T09:02:57.552Z,27.67
2018-07-21T09:03:57.513Z,27.67
2018-07-21T09:04:57.478Z,27.73
2018-07-21T09:05:57.442Z,27.85
2018-07-21T09:06:57.402Z,27.85
2018-07-21T09:07:57.367Z,27.91
2018-07-21T09:08:57.332Z,27.85
2018-07-21T09:09:57.304Z,27.97
2018-07-21T09:10:57.255Z,27.88
2018-07-21T09:11:57.218Z,27.71
2018-07-21T09:12:57.185Z,27.60
2018-07-21T09:13:57.151Z,27.38
2018-07-21T09:14:57.115Z,27.22
2018-07-21T09:15:57.071Z,27.13
2018-07-21T09:16:57.046Z,27.01
2018-07-21T09:17:56.995Z,26.91
2018-07-21T09:18:56.960Z,26.81
2018-07-21T09:19:56.921Z,26.82
2018-07-21T09:20:56.887Z,26.83
2018-07-21T09:21:56.851Z,26.79
2018-07-21T09:22:56.817Z,26.81
2018-07-21T09:23:56.775Z,26.82
2018-07-21T09:24:56.736Z,26.74
2018-07-21T09:25:56.698Z,26.70
2018-07-21T09:26:56.661Z,26.81
2018-07-21T09:27:56.623Z,26.83
2018-07-21T09:28:56.586Z,26.88
2018-07-21T09:29:56.549Z,26.85
2018-07-21T09:30:56.512Z,26.89
2018-07-21T09:31:56.473Z,26.92
2018-07-21T09:32:56.434Z,26.93
2018-07-21T09:33:56.399Z,27.07
2018-07-21T09:34:56.360Z,27.22
2018-07-21T09:35:56.324Z,27.18
2018-07-21T09:36:56.289Z,27.20
2018-07-21T09:37:56.247Z,27.33
2018-07-21T09:38:56.209Z,27.34
2018-07-21T09:39:56.172Z,27.30
2018-07-21T09:40:56.139Z,27.45
2018-07-21T09:41:56.099Z,27.60
2018-07-21T09:42:56.065Z,27.57
2018-07-21T09:43:56.026Z,27.64
2018-07-21T09:44:55.989Z,27.68
2018-07-21T09:45:55.951Z,27.75
2018-07-21T09:46:55.912Z,27.88
2018-07-21T09:47:55.875Z,27.91
2018-07-21T09:48:55.836Z,27.88
2018-07-21T09:49:55.802Z,27.97
2018-07-21T09:50:55.763Z,28.09
2018-07-21T09:51:55.726Z,28.13
2018-07-21T09:52:55.688Z,28.16
2018-07-21T09:53:55.656Z,28.22
2018-07-21T09:54:55.615Z,28.20
2018-07-21T09:55:55.690Z,28.28
2018-07-21T09:56:55.552Z,28.43
2018-07-21T09:57:55.536Z,28.45
2018-07-21T09:58:55.498Z,28.47
2018-07-21T09:59:55.431Z,28.55
2018-07-21T10:00:55.395Z,28.68
2018-07-21T10:01:55.364Z,28.67
2018-07-21T10:02:55.331Z,28.64
2018-07-21T10:03:55.284Z,28.74
2018-07-21T10:04:55.246Z,28.83
2018-07-21T10:05:55.211Z,28.87
2018-07-21T10:06:55.179Z,29.00
2018-07-21T10:07:55.138Z,29.03
2018-07-21T10:08:55.102Z,29.03
2018-07-21T10:09:55.071Z,29.07
2018-07-21T10:10:55.029Z,29.18
2018-07-21T10:11:54.991Z,29.35
2018-07-21T10:12:54.955Z,29.42
2018-07-21T10:13:54.925Z,29.52
2018-07-21T10:14:54.884Z,29.59
2018-07-21T10:15:54.846Z,29.65
2018-07-21T10:16:54.812Z,29.76
2018-07-21T10:17:54.776Z,29.74
2018-07-21T10:18:54.739Z,29.87
2018-07-21T10:19:54.703Z,29.83
2018-07-21T10:20:54.671Z,29.92
2018-07-21T10:21:54.670Z,29.99
2018-07-21T10:22:54.597Z,30.10
2018-07-21T10:23:54.559Z,30.10
2018-07-21T10:24:54.524Z,30.16
2018-07-21T10:25:54.496Z,30.24
2018-07-21T10:26:54.452Z,30.40
2018-07-21T10:27:54.418Z,30.40
2018-07-21T10:28:54.385Z,30.52
2018-07-21T10:29:54.347Z,30.62
2018-07-21T10:30:54.309Z,30.67
2018-07-21T10:31:54.274Z,30.63
2018-07-21T10:32:54.239Z,30.81
2018-07-21T10:33:54.206Z,30.93
2018-07-21T10:34:54.171Z,31.04
2018-07-21T10:35:54.154Z,31.11
2018-07-21T10:36:54.101Z,31.22
2018-07-21T10:37:54.064Z,31.23
2018-07-21T10:38:54.028Z,31.39
2018-07-21T10:39:53.994Z,31.48
2018-07-21T10:40:53.961Z,31.48
2018-07-21T10:41:53.922Z,31.54
2018-07-21T10:42:53.887Z,31.66
2018-07-21T10:43:53.852Z,31.60
2018-07-21T10:44:53.822Z,31.70
2018-07-21T10:45:53.783Z,31.89
2018-07-21T10:46:53.750Z,31.95
2018-07-21T10:47:53.712Z,32.02
2018-07-21T10:48:53.684Z,32.19
2018-07-21T10:49:53.645Z,32.04
2018-07-21T10:50:53.700Z,32.15
2018-07-21T10:51:53.574Z,32.11
2018-07-21T10:52:53.540Z,32.12
2018-07-21T10:53:53.523Z,32.01
2018-07-21T10:54:53.473Z,32.05
2018-07-21T10:55:53.437Z,31.98
2018-07-21T10:56:53.402Z,31.89
2018-07-21T10:57:53.368Z,31.93
2018-07-21T10:58:53.332Z,31.86
2018-07-21T11:00:53.264Z,31.90
2018-07-21T11:01:53.230Z,31.87
2018-07-21T11:02:53.198Z,31.95
2018-07-21T11:03:53.165Z,32.00
2018-07-21T11:04:53.126Z,32.16
2018-07-21T11:05:53.094Z,32.22
2018-07-21T11:06:53.088Z,32.37
2018-07-21T11:07:53.026Z,32.45
2018-07-21T11:08:52.989Z,32.53
2018-07-21T11:09:52.964Z,32.54
2018-07-21T11:10:52.919Z,32.56
2018-07-21T11:11:52.888Z,32.59
2018-07-21T11:12:52.852Z,32.56
2018-07-21T11:13:52.828Z,32.46
2018-07-21T11:14:52.782Z,32.44
2018-07-21T11:15:52.749Z,32.39
2018-07-21T11:16:52.714Z,32.48
2018-07-21T11:17:52.694Z,32.60
2018-07-21T11:18:52.647Z,32.64
2018-07-21T11:19:52.612Z,32.68
2018-07-21T11:20:52.580Z,32.71
2018-07-21T11:21:52.555Z,32.76
2018-07-21T11:22:52.508Z,32.93
2018-07-21T11:23:52.476Z,32.86
2018-07-21T11:24:52.500Z,32.94
2018-07-21T11:25:52.407Z,33.10
2018-07-21T11:26:52.373Z,33.17
2018-07-21T11:27:52.341Z,33.29
2018-07-21T11:28:52.304Z,33.47
2018-07-21T11:29:52.273Z,33.48
2018-07-21T11:30:52.236Z,33.60
2018-07-21T11:31:52.203Z,33.57
2018-07-21T11:32:52.169Z,33.63
2018-07-21T11:33:52.136Z,33.65
2018-07-21T11:34:52.103Z,33.72
2018-07-21T11:35:52.522Z,33.76
2018-07-21T11:36:52.039Z,33.79
2018-07-21T11:37:52.190Z,33.92
2018-07-21T11:38:51.973Z,33.91
2018-07-21T11:39:52.227Z,34.02
2018-07-21T11:40:51.904Z,34.10
2018-07-21T11:41:52.058Z,34.18
2018-07-21T11:42:51.833Z,34.22
2018-07-21T11:43:52.027Z,34.21
2018-07-21T11:44:51.771Z,34.16
2018-07-21T11:45:51.978Z,34.14
2018-07-21T11:46:51.701Z,34.10
2018-07-21T11:47:51.905Z,34.02
2018-07-21T11:48:51.636Z,34.02
2018-07-21T11:49:51.603Z,34.10
2018-07-21T11:50:51.779Z,34.18
2018-07-21T11:51:51.534Z,34.14
2018-07-21T11:52:51.784Z,34.14
2018-07-21T11:53:51.470Z,33.98
2018-07-21T11:54:51.687Z,33.98
2018-07-21T11:55:51.401Z,33.97
2018-07-21T11:56:51.458Z,33.77
2018-07-21T11:57:51.336Z,33.73
2018-07-21T11:58:51.370Z,33.65
2018-07-21T11:59:51.270Z,33.69
2018-07-21T12:00:51.319Z,33.58
2018-07-21T12:01:51.259Z,33.48
2018-07-21T12:02:51.202Z,33.48
2018-07-21T12:03:51.138Z,33.51
2018-07-21T12:04:51.347Z,33.82
2018-07-21T12:05:51.069Z,33.95
2018-07-21T12:06:51.035Z,34.00
2018-07-21T12:07:51.004Z,33.79
2018-07-21T12:08:50.968Z,33.77
2018-07-21T12:09:50.936Z,33.61
2018-07-21T12:10:50.900Z,33.57
2018-07-21T12:11:50.871Z,33.50
2018-07-21T12:12:50.834Z,33.47
2018-07-21T12:13:50.803Z,33.44
2018-07-21T12:14:50.815Z,33.53
2018-07-21T12:15:50.734Z,33.85
2018-07-21T12:16:50.698Z,34.35
2018-07-21T12:17:50.665Z,34.43
2018-07-21T12:18:50.633Z,34.19
2018-07-21T12:19:50.681Z,34.06
2018-07-21T12:20:50.568Z,34.59
2018-07-21T12:21:50.535Z,35.31
2018-07-21T12:22:50.518Z,35.82
2018-07-21T12:23:50.464Z,36.17
2018-07-21T12:24:50.428Z,36.75
2018-07-21T12:25:50.396Z,37.09
2018-07-21T12:26:50.362Z,37.56
2018-07-21T12:27:50.328Z,37.90
2018-07-21T12:28:50.302Z,37.67
2018-07-21T12:29:50.265Z,37.07
2018-07-21T12:30:50.227Z,36.65
2018-07-21T12:31:50.228Z,36.24
2018-07-21T12:32:50.163Z,35.86
2018-07-21T12:33:50.129Z,35.59
2018-07-21T12:34:50.095Z,35.27
2018-07-21T12:35:50.065Z,35.01
2018-07-21T12:36:50.045Z,34.83
2018-07-21T12:37:49.996Z,34.70
2018-07-21T12:38:50.023Z,34.46
2018-07-21T12:39:49.929Z,34.31
2018-07-21T12:40:49.979Z,34.02
2018-07-21T12:41:49.867Z,33.95
2018-07-21T12:42:49.837Z,33.77
2018-07-21T12:43:49.848Z,33.53
2018-07-21T12:44:49.805Z,33.40
2018-07-21T12:45:49.772Z,33.26
2018-07-21T12:46:49.725Z,33.15
2018-07-21T12:47:49.756Z,33.08
2018-07-21T12:48:49.701Z,32.95
2018-07-21T12:49:49.632Z,32.86
2018-07-21T12:50:49.653Z,32.79
2018-07-21T12:51:49.935Z,32.72
2018-07-21T12:52:49.574Z,32.71